Time;durP1;ratioP1;P1;durP2;ratioP2;P2;SDS_P1;SDS_P2;PMS_P1;PMS_P2;Temp;Humidity;BMP_temperature;BMP_pressure;BME280_temperature;BME280_humidity;BME280_pressure;Samples;Min_cycle;Max_cycle;Signal;HPM_P1;HPM_P2
2022/02/21 00:00:53;;;;;;;2.27;2.07;;;;;;;;;;2074900;28;20165;-61
2022/02/21 00:01:53;;;;;;;2.00;1.80;;;;;;;;;;2067189;28;20280;-63
2022/02/21 00:02:54;;;;;;;1.90;1.80;;;;;;;;;;2067923;28;20177;-62
2022/02/21 00:03:54;;;;;;;3.97;2.67;;;;;;;;;;2066708;28;20237;-61
2022/02/21 00:04:55;;;;;;;2.10;2.00;;;;;;;;;;2066573;28;20174;-63
2022/02/21 00:05:55;;;;;;;1.80;1.53;;;;;;;;;;2066997;28;20185;-61
2022/02/21 00:06:56;;;;;;;2.13;2.00;;;;;;;;;;2070157;28;20181;-62
2022/02/21 00:07:56;;;;;;;2.07;1.87;;;;;;;;;;2062544;28;20175;-62
2022/02/21 00:08:56;;;;;;;2.60;1.67;;;;;;;;;;2066215;28;20604;-61
2022/02/21 00:09:56;;;;;;;1.63;1.50;;;;;;;;;;2067937;28;20650;-61
2022/02/21 00:10:56;;;;;;;2.27;2.07;;;;;;;;;;2073172;28;20707;-61
2022/02/21 00:11:57;;;;;;;1.93;1.40;;;;;;;;;;2073898;28;20273;-62
2022/02/21 00:12:57;;;;;;;2.47;2.27;;;;;;;;;;2072066;28;20181;-63
2022/02/21 00:13:57;;;;;;;2.70;2.03;;;;;;;;;;2066397;28;20626;-60
2022/02/21 00:14:58;;;;;;;2.80;2.07;;;;;;;;;;2066573;28;20189;-61
2022/02/21 00:15:58;;;;;;;1.83;1.73;;;;;;;;;;2072715;28;20263;-61
2022/02/21 00:16:58;;;;;;;2.73;2.00;;;;;;;;;;2068951;28;20176;-63
2022/02/21 00:17:58;;;;;;;2.90;1.80;;;;;;;;;;2071127;28;20534;-61
2022/02/21 00:18:59;;;;;;;3.20;2.10;;;;;;;;;;2073714;28;20192;-61
2022/02/21 00:19:59;;;;;;;3.20;1.60;;;;;;;;;;2073315;28;20202;-60
2022/02/21 00:21:00;;;;;;;2.43;2.23;;;;;;;;;;2073819;28;20168;-61
2022/02/21 00:22:00;;;;;;;8.33;3.03;;;;;;;;;;2074455;28;20675;-61
2022/02/21 00:23:02;;;;;;;2.03;1.80;;;;;;;;;;2071604;28;20178;-61
2022/02/21 00:24:03;;;;;;;1.67;1.50;;;;;;;;;;2066262;28;20646;-61
2022/02/21 00:25:03;;;;;;;2.43;1.70;;;;;;;;;;2066773;28;20244;-60
2022/02/21 00:26:04;;;;;;;1.83;1.63;;;;;;;;;;2066867;28;20200;-61
2022/02/21 00:27:04;;;;;;;1.97;1.73;;;;;;;;;;2067364;28;20189;-63
2022/02/21 00:28:04;;;;;;;2.67;2.03;;;;;;;;;;2065969;28;20181;-62
2022/02/21 00:29:07;;;;;;;4.27;1.87;;;;;;;;;;2074015;28;20203;-60
2022/02/21 00:30:08;;;;;;;1.70;1.60;;;;;;;;;;2074668;28;20532;-62
2022/02/21 00:31:08;;;;;;;5.80;2.00;;;;;;;;;;2074337;28;20188;-61
2022/02/21 00:32:08;;;;;;;4.30;1.77;;;;;;;;;;2075011;28;20212;-60
2022/02/21 00:33:09;;;;;;;5.63;1.50;;;;;;;;;;2070706;28;20166;-58
2022/02/21 00:34:09;;;;;;;3.93;2.03;;;;;;;;;;2073588;28;20243;-62
2022/02/21 00:35:09;;;;;;;3.13;1.83;;;;;;;;;;2069494;28;20178;-61
2022/02/21 00:36:10;;;;;;;1.57;1.47;;;;;;;;;;2070683;28;20563;-62
2022/02/21 00:37:11;;;;;;;4.00;1.67;;;;;;;;;;2074390;28;20264;-63
2022/02/21 00:38:11;;;;;;;2.37;2.03;;;;;;;;;;2071271;28;20181;-62
2022/02/21 00:39:11;;;;;;;3.53;1.67;;;;;;;;;;2065983;28;20195;-62
2022/02/21 00:40:11;;;;;;;4.30;1.90;;;;;;;;;;2065569;28;20209;-61
2022/02/21 00:41:12;;;;;;;3.33;1.50;;;;;;;;;;2062202;28;20170;-61
2022/02/21 00:42:12;;;;;;;5.27;2.10;;;;;;;;;;2064224;28;20468;-61
2022/02/21 00:43:13;;;;;;;2.27;1.50;;;;;;;;;;2068532;28;20735;-61
2022/02/21 00:44:13;;;;;;;1.77;1.67;;;;;;;;;;2071249;28;20267;-62
2022/02/21 00:45:13;;;;;;;1.63;1.53;;;;;;;;;;2068804;28;20170;-61
2022/02/21 00:46:14;;;;;;;3.70;1.80;;;;;;;;;;2070515;28;20683;-63
2022/02/21 00:47:15;;;;;;;2.53;1.60;;;;;;;;;;2075100;28;20658;-62
2022/02/21 00:48:15;;;;;;;3.10;1.63;;;;;;;;;;2075051;28;20169;-61
2022/02/21 00:49:16;;;;;;;5.37;2.00;;;;;;;;;;2075183;28;20259;-62
2022/02/21 00:50:16;;;;;;;9.47;2.50;;;;;;;;;;2066708;28;20577;-61
2022/02/21 00:51:17;;;;;;;3.37;2.07;;;;;;;;;;2068062;28;20220;-61
2022/02/21 00:52:17;;;;;;;2.33;2.10;;;;;;;;;;2075358;28;20214;-62
2022/02/21 00:53:17;;;;;;;1.93;1.83;;;;;;;;;;2071640;28;20635;-61
2022/02/21 00:54:18;;;;;;;9.23;2.93;;;;;;;;;;2071235;28;20177;-62
2022/02/21 00:55:18;;;;;;;5.03;2.30;;;;;;;;;;2068503;28;20649;-62
2022/02/21 00:56:18;;;;;;;4.53;2.07;;;;;;;;;;2067707;28;20225;-59
2022/02/21 00:57:18;;;;;;;2.53;2.13;;;;;;;;;;2066901;28;20178;-60
2022/02/21 00:58:19;;;;;;;4.27;2.13;;;;;;;;;;2069052;28;20177;-62
2022/02/21 00:59:19;;;;;;;3.30;1.73;;;;;;;;;;2068778;28;20173;-60
2022/02/21 01:00:19;;;;;;;2.77;1.60;;;;;;;;;;2068060;28;20209;-59
2022/02/21 01:01:20;;;;;;;3.30;2.07;;;;;;;;;;2067981;28;20269;-61
2022/02/21 01:02:20;;;;;;;5.20;2.10;;;;;;;;;;2069050;28;20638;-60
2022/02/21 01:03:20;;;;;;;2.40;1.90;;;;;;;;;;2072761;28;20733;-60
2022/02/21 01:04:20;;;;;;;2.53;1.90;;;;;;;;;;2073847;28;20181;-60
2022/02/21 01:05:21;;;;;;;2.53;1.57;;;;;;;;;;2067032;28;20666;-57
2022/02/21 01:06:24;;;;;;;3.33;2.00;;;;;;;;;;2067718;28;20173;-61
2022/02/21 01:07:24;;;;;;;4.53;1.97;;;;;;;;;;2067489;28;20184;-60
2022/02/21 01:08:24;;;;;;;2.37;2.13;;;;;;;;;;2069151;28;20170;-60
2022/02/21 01:09:25;;;;;;;4.10;2.00;;;;;;;;;;2068045;28;20170;-61
2022/02/21 01:10:25;;;;;;;3.60;1.80;;;;;;;;;;2072518;28;20242;-61
2022/02/21 01:11:30;;;;;;;5.47;2.00;;;;;;;;;;2068870;28;20437;-63
2022/02/21 01:12:30;;;;;;;7.47;2.47;;;;;;;;;;2068365;28;20273;-62
2022/02/21 01:13:31;;;;;;;10.80;2.47;;;;;;;;;;2073644;28;20191;-60
2022/02/21 01:14:31;;;;;;;5.27;2.67;;;;;;;;;;2076040;28;20664;-62
2022/02/21 01:15:31;;;;;;;4.87;1.83;;;;;;;;;;2076118;28;20185;-60
2022/02/21 01:16:32;;;;;;;2.90;1.60;;;;;;;;;;2078145;28;20173;-60
2022/02/21 01:17:33;;;;;;;6.03;2.47;;;;;;;;;;2076055;28;20189;-61
2022/02/21 01:18:33;;;;;;;3.67;1.90;;;;;;;;;;2075727;28;20534;-61
2022/02/21 01:19:33;;;;;;;6.07;1.80;;;;;;;;;;2075066;28;20185;-60
2022/02/21 01:20:34;;;;;;;3.57;2.67;;;;;;;;;;2075466;28;20165;-60
2022/02/21 01:21:34;;;;;;;4.67;2.20;;;;;;;;;;2075848;28;20645;-59
2022/02/21 01:22:35;;;;;;;2.57;2.00;;;;;;;;;;2074058;28;20208;-61
2022/02/21 01:23:39;;;;;;;3.70;1.93;;;;;;;;;;2073451;28;20256;-62
2022/02/21 01:24:39;;;;;;;2.00;1.77;;;;;;;;;;2066604;28;20534;-62
2022/02/21 01:25:40;;;;;;;4.23;2.63;;;;;;;;;;2074156;28;20210;-62
2022/02/21 01:26:40;;;;;;;8.73;2.70;;;;;;;;;;2067778;28;20209;-62
2022/02/21 01:27:41;;;;;;;5.77;2.53;;;;;;;;;;2074357;28;20215;-62
2022/02/21 01:28:41;;;;;;;8.50;2.53;;;;;;;;;;2074115;28;20181;-62
2022/02/21 01:29:41;;;;;;;5.67;2.40;;;;;;;;;;2074920;28;20316;-63
2022/02/21 01:30:42;;;;;;;9.27;2.50;;;;;;;;;;2073955;28;20161;-63
2022/02/21 01:31:42;;;;;;;3.93;2.37;;;;;;;;;;2072963;28;20269;-62
2022/02/21 01:32:42;;;;;;;5.90;3.10;;;;;;;;;;2075650;28;20172;-61
2022/02/21 01:33:43;;;;;;;8.10;2.67;;;;;;;;;;2073259;28;20180;-62
2022/02/21 01:34:43;;;;;;;7.33;2.77;;;;;;;;;;2073632;28;20181;-61
2022/02/21 01:35:43;;;;;;;5.57;2.63;;;;;;;;;;2073608;28;20232;-63
2022/02/21 01:36:43;;;;;;;3.63;2.10;;;;;;;;;;2073453;28;20161;-62
2022/02/21 01:37:44;;;;;;;5.53;2.30;;;;;;;;;;2065497;28;20236;-61
2022/02/21 01:38:44;;;;;;;7.13;2.93;;;;;;;;;;2065422;28;20245;-62
2022/02/21 01:39:44;;;;;;;6.83;2.77;;;;;;;;;;2066913;28;20185;-62
2022/02/21 01:40:44;;;;;;;4.50;2.60;;;;;;;;;;2065936;28;20170;-61
2022/02/21 01:41:45;;;;;;;5.33;2.40;;;;;;;;;;2066337;28;20181;-62
2022/02/21 01:42:45;;;;;;;5.27;2.73;;;;;;;;;;2057301;28;20178;-62
2022/02/21 01:43:47;;;;;;;9.50;3.03;;;;;;;;;;2072213;28;20673;-62
2022/02/21 01:44:48;;;;;;;4.80;2.70;;;;;;;;;;2073944;28;20186;-62
2022/02/21 01:45:48;;;;;;;7.73;2.90;;;;;;;;;;2074001;28;20243;-62
2022/02/21 01:46:48;;;;;;;9.13;3.03;;;;;;;;;;2074124;28;20168;-62
2022/02/21 01:47:49;;;;;;;5.60;2.43;;;;;;;;;;2073843;28;20181;-63
2022/02/21 01:48:49;;;;;;;4.07;2.33;;;;;;;;;;2074224;28;20184;-62
2022/02/21 01:49:49;;;;;;;10.63;2.93;;;;;;;;;;2073824;28;20259;-62
2022/02/21 01:50:50;;;;;;;6.23;3.07;;;;;;;;;;2074140;28;20177;-62
2022/02/21 01:51:50;;;;;;;9.00;2.50;;;;;;;;;;2073916;28;20183;-62
2022/02/21 01:52:51;;;;;;;7.40;3.30;;;;;;;;;;2070776;28;20201;-62
2022/02/21 01:53:53;;;;;;;10.17;2.63;;;;;;;;;;2072601;28;20188;-61
2022/02/21 01:54:53;;;;;;;5.10;2.67;;;;;;;;;;2072898;28;20213;-62
2022/02/21 01:55:54;;;;;;;10.30;3.33;;;;;;;;;;2073820;28;20641;-62
2022/02/21 01:56:54;;;;;;;17.67;3.23;;;;;;;;;;2072893;28;20181;-62
2022/02/21 01:57:55;;;;;;;5.97;3.67;;;;;;;;;;2072204;28;20184;-62
2022/02/21 01:58:55;;;;;;;8.57;3.27;;;;;;;;;;2065795;28;20180;-63
2022/02/21 01:59:55;;;;;;;15.70;4.13;;;;;;;;;;2065926;28;20248;-61
2022/02/21 02:00:55;;;;;;;8.83;3.10;;;;;;;;;;2067789;28;20181;-62
2022/02/21 02:01:56;;;;;;;7.00;3.07;;;;;;;;;;2073678;28;20176;-62
2022/02/21 02:02:56;;;;;;;9.97;3.53;;;;;;;;;;2068804;28;20567;-63
2022/02/21 02:03:58;;;;;;;9.13;3.50;;;;;;;;;;2066596;28;20186;-61
2022/02/21 02:04:58;;;;;;;8.47;3.40;;;;;;;;;;2073330;28;20187;-63
2022/02/21 02:05:58;;;;;;;8.80;3.53;;;;;;;;;;2073538;28;20192;-62
2022/02/21 02:07:00;;;;;;;8.87;3.80;;;;;;;;;;2073486;28;20630;-63
2022/02/21 02:08:01;;;;;;;10.63;3.63;;;;;;;;;;2066370;28;20436;-63
2022/02/21 02:09:02;;;;;;;12.23;3.70;;;;;;;;;;2069018;28;20216;-63
2022/02/21 02:10:03;;;;;;;8.43;3.00;;;;;;;;;;2068509;28;20181;-63
2022/02/21 02:11:03;;;;;;;11.30;3.47;;;;;;;;;;2073222;28;20177;-63
2022/02/21 02:12:06;;;;;;;7.10;3.33;;;;;;;;;;2072849;28;20195;-62
2022/02/21 02:13:06;;;;;;;10.77;3.83;;;;;;;;;;2073655;28;20235;-63
2022/02/21 02:14:06;;;;;;;8.87;3.00;;;;;;;;;;2073142;28;20181;-63
2022/02/21 02:15:14;;;;;;;5.87;2.53;;;;;;;;;;2073849;28;20208;-62
2022/02/21 02:16:14;;;;;;;8.57;2.83;;;;;;;;;;2073085;28;20764;-65
2022/02/21 02:17:15;;;;;;;10.53;3.10;;;;;;;;;;2072837;28;20224;-59
2022/02/21 02:18:15;;;;;;;6.83;3.20;;;;;;;;;;2070477;28;20578;-63
2022/02/21 02:19:16;;;;;;;7.73;3.53;;;;;;;;;;2071134;28;20271;-61
2022/02/21 02:20:18;;;;;;;9.03;3.70;;;;;;;;;;2071268;28;20727;-63
2022/02/21 02:21:20;;;;;;;11.03;3.93;;;;;;;;;;2073074;28;20177;-62
2022/02/21 02:22:21;;;;;;;10.07;3.77;;;;;;;;;;2070715;28;20221;-62
2022/02/21 02:23:22;;;;;;;9.93;3.47;;;;;;;;;;2067186;28;20177;-64
2022/02/21 02:24:23;;;;;;;8.63;3.90;;;;;;;;;;2070802;28;20172;-62
2022/02/21 02:25:23;;;;;;;16.83;4.40;;;;;;;;;;2066085;28;20753;-62
2022/02/21 02:26:23;;;;;;;10.47;4.13;;;;;;;;;;2071502;28;20177;-63
2022/02/21 02:27:25;;;;;;;10.23;3.97;;;;;;;;;;2069595;28;20224;-62
2022/02/21 02:28:26;;;;;;;7.33;3.77;;;;;;;;;;2065596;28;20213;-63
2022/02/21 02:29:26;;;;;;;10.50;4.43;;;;;;;;;;2073195;28;20323;-62
2022/02/21 02:30:26;;;;;;;12.60;4.13;;;;;;;;;;2073691;28;20173;-62
2022/02/21 02:31:27;;;;;;;22.87;4.60;;;;;;;;;;2072906;28;20173;-63
2022/02/21 02:32:27;;;;;;;14.00;3.77;;;;;;;;;;2066672;28;20190;-63
2022/02/21 02:33:27;;;;;;;11.73;4.10;;;;;;;;;;2065517;28;20201;-63
2022/02/21 02:34:28;;;;;;;13.77;4.63;;;;;;;;;;2065185;28;20169;-62
2022/02/21 02:35:30;;;;;;;14.07;4.07;;;;;;;;;;2065420;28;20593;-61
2022/02/21 02:36:30;;;;;;;12.17;4.67;;;;;;;;;;2065525;28;20170;-63
2022/02/21 02:37:30;;;;;;;12.87;3.60;;;;;;;;;;2065475;28;20205;-62
2022/02/21 02:38:30;;;;;;;14.00;4.77;;;;;;;;;;2065413;28;20203;-63
2022/02/21 02:39:31;;;;;;;10.20;3.70;;;;;;;;;;2072935;28;20185;-62
2022/02/21 02:40:33;;;;;;;17.57;4.97;;;;;;;;;;2071694;28;20211;-62
2022/02/21 02:41:34;;;;;;;13.63;4.00;;;;;;;;;;2072699;28;20231;-63
2022/02/21 02:42:34;;;;;;;13.90;4.07;;;;;;;;;;2066637;28;20665;-63
2022/02/21 02:43:38;;;;;;;14.67;4.77;;;;;;;;;;2065385;28;20178;-63
2022/02/21 02:44:38;;;;;;;24.47;5.20;;;;;;;;;;2065399;28;20165;-61
2022/02/21 02:45:42;;;;;;;13.63;4.40;;;;;;;;;;2073570;28;20574;-59
2022/02/21 02:46:42;;;;;;;11.70;4.50;;;;;;;;;;2072562;28;20177;-58
2022/02/21 02:47:42;;;;;;;12.67;3.73;;;;;;;;;;2072103;28;20173;-58
2022/02/21 02:48:43;;;;;;;7.70;3.03;;;;;;;;;;2066811;28;20187;-58
2022/02/21 02:49:43;;;;;;;12.70;4.20;;;;;;;;;;2073242;28;20641;-59
2022/02/21 02:50:45;;;;;;;9.57;4.23;;;;;;;;;;2073443;28;20165;-59
2022/02/21 02:51:45;;;;;;;11.17;4.00;;;;;;;;;;2073271;28;20171;-59
2022/02/21 02:52:45;;;;;;;6.47;3.93;;;;;;;;;;2072814;28;20200;-59
2022/02/21 02:53:46;;;;;;;13.27;4.30;;;;;;;;;;2071581;28;20776;-58
2022/02/21 02:54:46;;;;;;;13.27;3.97;;;;;;;;;;2065741;28;20184;-58
2022/02/21 02:55:46;;;;;;;9.43;3.30;;;;;;;;;;2073329;28;20673;-60
2022/02/21 02:56:47;;;;;;;8.70;3.50;;;;;;;;;;2073993;28;20172;-59
2022/02/21 02:57:47;;;;;;;11.77;3.67;;;;;;;;;;2067609;28;20177;-58
2022/02/21 02:58:48;;;;;;;8.33;4.33;;;;;;;;;;2067656;28;20168;-58
2022/02/21 02:59:48;;;;;;;9.77;3.10;;;;;;;;;;2068917;28;20166;-58
2022/02/21 03:00:48;;;;;;;18.07;4.30;;;;;;;;;;2066613;28;20671;-56
2022/02/21 03:01:48;;;;;;;12.73;4.30;;;;;;;;;;2066151;28;20165;-57
2022/02/21 03:02:49;;;;;;;10.23;4.07;;;;;;;;;;2066146;28;20170;-60
2022/02/21 03:03:49;;;;;;;16.00;4.43;;;;;;;;;;2065931;28;20177;-55
2022/02/21 03:04:49;;;;;;;10.10;2.53;;;;;;;;;;2069530;28;20575;-56
2022/02/21 03:05:49;;;;;;;10.33;4.13;;;;;;;;;;2073479;28;20199;-56
2022/02/21 03:06:50;;;;;;;11.27;3.87;;;;;;;;;;2072212;28;20183;-56
2022/02/21 03:07:50;;;;;;;10.90;3.77;;;;;;;;;;2065414;28;20184;-56
2022/02/21 03:08:50;;;;;;;11.70;3.30;;;;;;;;;;2065292;28;20161;-54
2022/02/21 03:09:51;;;;;;;7.00;2.93;;;;;;;;;;2067065;28;20209;-57
2022/02/21 03:10:51;;;;;;;15.93;4.37;;;;;;;;;;2072844;28;20169;-59
2022/02/21 03:11:51;;;;;;;14.63;4.30;;;;;;;;;;2072812;28;20246;-57
2022/02/21 03:12:52;;;;;;;16.47;4.40;;;;;;;;;;2066557;28;20519;-56
2022/02/21 03:13:52;;;;;;;11.40;3.30;;;;;;;;;;2056289;28;20690;-55
2022/02/21 03:14:52;;;;;;;16.27;4.77;;;;;;;;;;2064391;28;20207;-57
2022/02/21 03:15:53;;;;;;;11.10;3.00;;;;;;;;;;2056390;28;20287;-58
2022/02/21 03:16:53;;;;;;;14.90;3.90;;;;;;;;;;2056668;28;20179;-52
2022/02/21 03:17:53;;;;;;;17.07;4.80;;;;;;;;;;2065208;28;20173;-61
2022/02/21 03:18:54;;;;;;;16.43;4.37;;;;;;;;;;2065226;28;20610;-59
2022/02/21 03:19:54;;;;;;;15.57;4.10;;;;;;;;;;2064935;28;20193;-60
2022/02/21 03:20:54;;;;;;;12.70;3.67;;;;;;;;;;2064835;28;20173;-58
2022/02/21 03:21:56;;;;;;;11.97;4.10;;;;;;;;;;2067585;28;20169;-56
2022/02/21 03:22:56;;;;;;;13.90;4.70;;;;;;;;;;2072570;28;20196;-58
2022/02/21 03:23:57;;;;;;;13.37;5.10;;;;;;;;;;2066549;28;20183;-58
2022/02/21 03:24:58;;;;;;;10.20;4.13;;;;;;;;;;2067801;28;20231;-59
2022/02/21 03:25:58;;;;;;;7.07;3.90;;;;;;;;;;2071193;28;20677;-61
2022/02/21 03:26:58;;;;;;;13.93;4.30;;;;;;;;;;2073453;28;20169;-59
2022/02/21 03:27:59;;;;;;;14.20;4.70;;;;;;;;;;2073332;28;20183;-59
2022/02/21 03:28:59;;;;;;;21.00;4.70;;;;;;;;;;2073384;28;20300;-58
2022/02/21 03:29:59;;;;;;;9.60;4.50;;;;;;;;;;2066582;28;20260;-58
2022/02/21 03:31:00;;;;;;;15.20;4.43;;;;;;;;;;2064807;28;20194;-58
2022/02/21 03:32:00;;;;;;;12.00;3.73;;;;;;;;;;2064657;28;20400;-58
2022/02/21 03:33:01;;;;;;;16.83;4.53;;;;;;;;;;2065165;28;20177;-61
2022/02/21 03:34:02;;;;;;;10.77;3.53;;;;;;;;;;2064812;28;20185;-59
2022/02/21 03:35:02;;;;;;;11.30;3.93;;;;;;;;;;2066228;28;20204;-59
2022/02/21 03:36:02;;;;;;;10.33;3.30;;;;;;;;;;2070310;28;20562;-60
2022/02/21 03:37:03;;;;;;;10.47;3.80;;;;;;;;;;2073284;28;20192;-61
2022/02/21 03:38:03;;;;;;;14.70;3.50;;;;;;;;;;2072978;28;20177;-59
2022/02/21 03:39:03;;;;;;;9.63;3.63;;;;;;;;;;2073270;28;20181;-58
2022/02/21 03:40:04;;;;;;;13.30;3.40;;;;;;;;;;2070271;28;20204;-59
2022/02/21 03:41:04;;;;;;;8.63;3.20;;;;;;;;;;2072593;28;20278;-58
2022/02/21 03:42:05;;;;;;;12.03;3.30;;;;;;;;;;2068632;28;20204;-59
2022/02/21 03:43:05;;;;;;;16.70;3.97;;;;;;;;;;2066840;28;20178;-59
2022/02/21 03:44:05;;;;;;;11.57;4.10;;;;;;;;;;2071143;28;20231;-56
2022/02/21 03:45:06;;;;;;;9.57;3.77;;;;;;;;;;2072600;28;20169;-59
2022/02/21 03:46:06;;;;;;;10.03;2.67;;;;;;;;;;2072285;28;20684;-57
2022/02/21 03:47:06;;;;;;;9.10;3.77;;;;;;;;;;2072633;28;20540;-54
2022/02/21 03:48:07;;;;;;;9.10;3.20;;;;;;;;;;2072578;28;20177;-59
2022/02/21 03:49:07;;;;;;;8.67;3.03;;;;;;;;;;2072606;28;20296;-61
2022/02/21 03:50:07;;;;;;;8.53;3.40;;;;;;;;;;2073079;28;20181;-52
2022/02/21 03:51:08;;;;;;;7.50;3.30;;;;;;;;;;2073323;28;20173;-57
2022/02/21 03:52:08;;;;;;;9.27;3.07;;;;;;;;;;2071337;28;20196;-53
2022/02/21 03:53:08;;;;;;;7.90;3.10;;;;;;;;;;2072201;28;20181;-59
2022/02/21 03:54:09;;;;;;;8.87;3.40;;;;;;;;;;2067616;28;20264;-58
2022/02/21 03:55:10;;;;;;;6.90;3.77;;;;;;;;;;2067930;28;20178;-59
2022/02/21 03:56:10;;;;;;;6.30;3.13;;;;;;;;;;2065070;28;20292;-57
2022/02/21 03:57:10;;;;;;;7.87;3.07;;;;;;;;;;2073073;28;20188;-59
2022/02/21 03:58:11;;;;;;;10.77;3.97;;;;;;;;;;2073281;28;20169;-58
2022/02/21 03:59:11;;;;;;;10.43;3.37;;;;;;;;;;2073055;28;20200;-56
2022/02/21 04:00:12;;;;;;;5.77;2.70;;;;;;;;;;2064969;28;20704;-56
2022/02/21 04:01:13;;;;;;;11.77;3.80;;;;;;;;;;2064458;28;20185;-58
2022/02/21 04:02:14;;;;;;;7.97;3.10;;;;;;;;;;2064569;28;20568;-59
2022/02/21 04:03:14;;;;;;;10.43;4.17;;;;;;;;;;2065133;28;20228;-59
2022/02/21 04:04:14;;;;;;;13.57;4.73;;;;;;;;;;2064789;28;20186;-61
2022/02/21 04:05:15;;;;;;;9.77;3.70;;;;;;;;;;2065183;28;20186;-59
2022/02/21 04:06:15;;;;;;;11.00;3.77;;;;;;;;;;2066758;28;20193;-58
2022/02/21 04:07:15;;;;;;;12.47;3.13;;;;;;;;;;2073420;28;20207;-59
2022/02/21 04:08:15;;;;;;;12.00;4.07;;;;;;;;;;2071666;28;20165;-59
2022/02/21 04:09:16;;;;;;;10.40;4.00;;;;;;;;;;2073262;28;20169;-58
2022/02/21 04:10:18;;;;;;;12.07;3.53;;;;;;;;;;2069455;28;20212;-59
2022/02/21 04:11:18;;;;;;;3.93;2.80;;;;;;;;;;2064562;28;20532;-61
2022/02/21 04:12:18;;;;;;;9.33;3.33;;;;;;;;;;2064865;28;20220;-59
2022/02/21 04:13:19;;;;;;;6.87;3.90;;;;;;;;;;2065264;28;20173;-57
2022/02/21 04:14:19;;;;;;;7.40;3.00;;;;;;;;;;2069257;28;20203;-60
2022/02/21 04:15:19;;;;;;;7.73;2.97;;;;;;;;;;2066022;28;20181;-59
2022/02/21 04:16:19;;;;;;;4.27;2.57;;;;;;;;;;2064927;28;20209;-58
2022/02/21 04:17:20;;;;;;;8.93;3.03;;;;;;;;;;2065224;28;20196;-58
2022/02/21 04:18:20;;;;;;;10.03;4.07;;;;;;;;;;2065177;28;20178;-58
2022/02/21 04:19:20;;;;;;;8.30;2.73;;;;;;;;;;2064512;28;20261;-59
2022/02/21 04:20:23;;;;;;;7.40;2.73;;;;;;;;;;2067031;28;20236;-60
2022/02/21 04:21:23;;;;;;;7.77;3.37;;;;;;;;;;2073186;28;20197;-56
2022/02/21 04:22:23;;;;;;;10.37;3.70;;;;;;;;;;2071542;28;20173;-60
2022/02/21 04:23:23;;;;;;;4.07;2.57;;;;;;;;;;2069245;28;20158;-59
2022/02/21 04:24:24;;;;;;;9.37;2.37;;;;;;;;;;2069410;28;20192;-58
2022/02/21 04:25:24;;;;;;;7.40;2.40;;;;;;;;;;2065413;28;20208;-59
2022/02/21 04:26:24;;;;;;;5.37;2.90;;;;;;;;;;2071623;28;20165;-58
2022/02/21 04:27:24;;;;;;;8.63;3.70;;;;;;;;;;2066382;28;20259;-59
2022/02/21 04:28:25;;;;;;;10.47;2.90;;;;;;;;;;2065396;28;20186;-59
2022/02/21 04:29:25;;;;;;;11.00;3.43;;;;;;;;;;2064553;28;20180;-58
2022/02/21 04:30:26;;;;;;;5.73;2.87;;;;;;;;;;2064972;28;20656;-59
2022/02/21 04:31:27;;;;;;;6.37;2.40;;;;;;;;;;2065183;28;20174;-59
2022/02/21 04:32:27;;;;;;;7.10;3.00;;;;;;;;;;2067330;28;20252;-59
2022/02/21 04:33:27;;;;;;;9.03;3.77;;;;;;;;;;2073612;28;20169;-56
2022/02/21 04:34:27;;;;;;;6.60;2.70;;;;;;;;;;2072952;28;20169;-57
2022/02/21 04:35:28;;;;;;;4.30;2.93;;;;;;;;;;2067462;28;20185;-59
2022/02/21 04:36:34;;;;;;;5.07;2.70;;;;;;;;;;2073662;28;20180;-59
2022/02/21 04:37:35;;;;;;;4.63;2.63;;;;;;;;;;2074269;28;20169;-57
2022/02/21 04:38:35;;;;;;;7.70;3.10;;;;;;;;;;2073741;28;20169;-55
2022/02/21 04:39:35;;;;;;;3.60;2.50;;;;;;;;;;2073292;28;20179;-59
2022/02/21 04:40:35;;;;;;;8.90;2.80;;;;;;;;;;2057307;28;20210;-59
2022/02/21 04:41:35;;;;;;;9.73;3.03;;;;;;;;;;2064971;28;20602;-59
2022/02/21 04:42:36;;;;;;;5.40;2.13;;;;;;;;;;2072124;28;20173;-61
2022/02/21 04:43:36;;;;;;;4.07;2.10;;;;;;;;;;2065969;28;20178;-57
2022/02/21 04:44:37;;;;;;;4.53;3.10;;;;;;;;;;2070370;28;20173;-60
2022/02/21 04:45:37;;;;;;;11.27;2.53;;;;;;;;;;2073838;28;20521;-58
2022/02/21 04:46:37;;;;;;;4.23;2.20;;;;;;;;;;2068844;28;20260;-58
2022/02/21 04:47:38;;;;;;;2.57;2.03;;;;;;;;;;2066286;28;20182;-59
2022/02/21 04:48:38;;;;;;;5.87;2.90;;;;;;;;;;2071410;28;20183;-58
2022/02/21 04:49:38;;;;;;;3.27;2.50;;;;;;;;;;2073600;28;20169;-61
2022/02/21 04:50:38;;;;;;;7.77;2.97;;;;;;;;;;2073929;28;20205;-59
2022/02/21 04:51:39;;;;;;;6.50;3.07;;;;;;;;;;2074503;28;20594;-59
2022/02/21 04:52:42;;;;;;;6.93;2.70;;;;;;;;;;2071101;28;20197;-59
2022/02/21 04:53:43;;;;;;;6.00;2.87;;;;;;;;;;2067120;28;20272;-57
2022/02/21 04:54:43;;;;;;;5.43;2.70;;;;;;;;;;2073913;28;20173;-59
2022/02/21 04:55:43;;;;;;;9.70;3.37;;;;;;;;;;2074578;28;20220;-59
2022/02/21 04:56:44;;;;;;;4.90;3.10;;;;;;;;;;2073601;28;20177;-60
2022/02/21 04:57:44;;;;;;;10.43;3.13;;;;;;;;;;2070475;28;20215;-56
2022/02/21 04:58:44;;;;;;;8.93;3.20;;;;;;;;;;2066560;28;20173;-57
2022/02/21 04:59:44;;;;;;;7.70;3.70;;;;;;;;;;2066371;28;20170;-58
2022/02/21 05:00:45;;;;;;;9.70;3.43;;;;;;;;;;2066399;28;20522;-61
2022/02/21 05:01:45;;;;;;;7.07;3.07;;;;;;;;;;2066393;28;20177;-61
2022/02/21 05:02:45;;;;;;;8.30;3.63;;;;;;;;;;2072047;28;20208;-59
2022/02/21 05:03:46;;;;;;;8.37;3.70;;;;;;;;;;2074383;28;20189;-59
2022/02/21 05:04:46;;;;;;;7.27;3.00;;;;;;;;;;2068779;28;20192;-58
2022/02/21 05:05:46;;;;;;;12.13;3.90;;;;;;;;;;2066274;28;20193;-58
2022/02/21 05:06:46;;;;;;;7.30;2.90;;;;;;;;;;2066518;28;20173;-58
2022/02/21 05:07:46;;;;;;;7.53;3.53;;;;;;;;;;2065648;28;20241;-57
2022/02/21 05:08:47;;;;;;;4.50;2.63;;;;;;;;;;2057614;28;20190;-58
2022/02/21 05:09:47;;;;;;;10.63;4.03;;;;;;;;;;2067083;28;20185;-58
2022/02/21 05:10:47;;;;;;;6.40;2.53;;;;;;;;;;2074757;28;20180;-58
2022/02/21 05:11:47;;;;;;;7.53;3.97;;;;;;;;;;2074082;28;20181;-59
2022/02/21 05:12:48;;;;;;;10.37;3.40;;;;;;;;;;2074358;28;20165;-61
2022/02/21 05:13:48;;;;;;;9.33;3.63;;;;;;;;;;2075762;28;20295;-61
2022/02/21 05:14:48;;;;;;;7.20;3.67;;;;;;;;;;2074916;28;20546;-59
2022/02/21 05:17:20;;;;;;;9.57;3.63;;;;;;;;;;2041503;29;20204;-57
2022/02/21 05:18:21;;;;;;;5.93;3.33;;;;;;;;;;2037294;29;20176;-56
2022/02/21 05:19:21;;;;;;;11.73;3.87;;;;;;;;;;2036255;29;20188;-57
2022/02/21 05:20:21;;;;;;;11.13;3.60;;;;;;;;;;2035382;29;20242;-57
2022/02/21 05:21:22;;;;;;;12.03;3.93;;;;;;;;;;2036253;29;20255;-58
2022/02/21 05:22:22;;;;;;;9.20;2.87;;;;;;;;;;2033946;29;20991;-57
2022/02/21 05:23:24;;;;;;;7.90;3.67;;;;;;;;;;2034468;29;20164;-56
2022/02/21 05:24:25;;;;;;;8.60;3.50;;;;;;;;;;2034365;29;20687;-56
2022/02/21 05:25:25;;;;;;;9.10;3.03;;;;;;;;;;2036312;29;20180;-58
2022/02/21 05:26:25;;;;;;;8.43;3.67;;;;;;;;;;2047250;29;20278;-54
2022/02/21 05:27:26;;;;;;;12.60;3.67;;;;;;;;;;2051191;28;20159;-56
2022/02/21 05:28:26;;;;;;;10.43;3.40;;;;;;;;;;2050725;28;20171;-55
2022/02/21 05:29:26;;;;;;;8.97;3.57;;;;;;;;;;2050765;29;20178;-57
2022/02/21 05:30:26;;;;;;;7.87;3.10;;;;;;;;;;2050561;29;20214;-57
2022/02/21 05:31:27;;;;;;;9.37;3.67;;;;;;;;;;2050630;29;20202;-56
2022/02/21 05:32:27;;;;;;;7.67;3.93;;;;;;;;;;2050803;29;20639;-54
2022/02/21 05:33:29;;;;;;;10.73;3.53;;;;;;;;;;2050572;28;20220;-57
2022/02/21 05:34:29;;;;;;;11.67;3.37;;;;;;;;;;2051427;28;20667;-57
2022/02/21 05:35:29;;;;;;;7.37;3.40;;;;;;;;;;2051262;28;20182;-53
2022/02/21 05:36:30;;;;;;;9.80;3.13;;;;;;;;;;2058488;28;20209;-57
2022/02/21 05:37:30;;;;;;;6.97;3.30;;;;;;;;;;2057888;28;20641;-52
2022/02/21 05:38:30;;;;;;;8.43;3.17;;;;;;;;;;2051110;28;20229;-57
2022/02/21 05:39:31;;;;;;;7.57;3.43;;;;;;;;;;2043738;28;20187;-53
2022/02/21 05:40:31;;;;;;;7.80;3.00;;;;;;;;;;2041657;29;20594;-55
2022/02/21 05:41:31;;;;;;;10.67;3.53;;;;;;;;;;2043747;29;20176;-53
2022/02/21 05:42:32;;;;;;;11.90;3.80;;;;;;;;;;2050657;29;20190;-58
2022/02/21 05:43:32;;;;;;;8.37;3.30;;;;;;;;;;2049393;28;20209;-56
2022/02/21 05:44:32;;;;;;;11.13;3.67;;;;;;;;;;2050549;29;20730;-58
2022/02/21 05:45:33;;;;;;;12.53;3.73;;;;;;;;;;2050108;29;20717;-54
2022/02/21 05:46:35;;;;;;;6.87;3.37;;;;;;;;;;2058169;28;20717;-57
2022/02/21 05:47:35;;;;;;;7.20;3.63;;;;;;;;;;2058155;28;20198;-57
2022/02/21 05:48:36;;;;;;;8.03;3.57;;;;;;;;;;2051898;29;20170;-58
2022/02/21 05:49:36;;;;;;;8.80;3.53;;;;;;;;;;2051169;28;20288;-54
2022/02/21 05:50:37;;;;;;;9.47;3.30;;;;;;;;;;2051098;28;20179;-53
2022/02/21 05:51:37;;;;;;;7.30;3.70;;;;;;;;;;2049386;28;20207;-54
2022/02/21 05:52:38;;;;;;;7.57;3.10;;;;;;;;;;2058529;28;20182;-57
2022/02/21 05:53:42;;;;;;;12.30;3.57;;;;;;;;;;2050369;28;20205;-54
2022/02/21 05:54:42;;;;;;;7.67;3.23;;;;;;;;;;2058631;28;20174;-55
2022/02/21 05:55:42;;;;;;;6.73;3.37;;;;;;;;;;2051434;28;20195;-56
2022/02/21 05:56:42;;;;;;;12.03;3.27;;;;;;;;;;2050474;28;20197;-56
2022/02/21 05:57:45;;;;;;;8.50;2.83;;;;;;;;;;2050123;28;20182;-56
2022/02/21 05:58:46;;;;;;;9.80;3.40;;;;;;;;;;2050704;28;20335;-54
2022/02/21 05:59:46;;;;;;;11.00;3.90;;;;;;;;;;2049653;28;20323;-56
2022/02/21 06:00:48;;;;;;;12.97;3.53;;;;;;;;;;2051239;28;20230;-54
2022/02/21 06:01:49;;;;;;;12.47;3.73;;;;;;;;;;2047737;28;20656;-55
2022/02/21 06:02:49;;;;;;;8.87;3.80;;;;;;;;;;2056669;28;20261;-55